North San Juan, CA (95960)

10:22 AM PST on February 08, 2016 (GMT -0800)
NSJ Fire Station 3 | | Change Station
CLOSE
Current Station
Personal Weather Station
Location: Nevada City, CA
Elevation: 2251 ft
Nearby Weather Stations

Elev 2251 ft 39.35 °N, 121.07 °W | Updated 12 seconds ago

Clear
Clear
69.6 °F
Feels Like 69.6 °F
N
4.2
Wind Variable Wind from East

Today
High -- | Low -- °F
--% Chance of Precip.
Yesterday
High -- | Low -- °F
Precip. -- in
Pressure 30.35 in
Visibility 10.0 miles
Clouds Clear
Dew Point 33 °F
Humidity 26%
Rainfall 0.00 in
Snow Depth Not available.
7:05 AM 5:32 PM
New Moon, 0% visible
METAR KGOO 081815Z AUTO 00000KT 10SM CLR 20/M05 A3035 RMK AO1
Pressure 30.35 in
Visibility 10.0 miles
Clouds Clear
Dew Point 33 °F
Humidity 26%
Rainfall 0.00 in
Snow Depth Not available.
7:05 AM 5:32 PM
New Moon, 0% visible
METAR KGOO 081815Z AUTO 00000KT 10SM CLR 20/M05 A3035 RMK AO1

10-Day Weather Forecast

Almanac

Astronomy

Feb. 08, 2016 Rise Set
Actual Time
Civil Twilight
Nautical Twilight
Astronomical Twilight
Moon
Length of Visible Light
Length of Day
Tomorrow will be .
, % of the Moon is Illuminated

Today's Extremes

State Highs State Lows

Community

WunderPhotos

Upload Photos

1,891,476 photos uploaded!

WunderBlog® & News

Nearby

Air Quality

  Air Quality AQ Index Pollutant
Not available.

Snow Depth

Station Depth Elevation

Earthquake Activity

City Distance Mag. Time & Date
Minimum magnitude displayed is 2.5.

Coastal Water Temperatures

Place Temperature

Stations

Nearby Weather Stations

Station Location Temp. Windchill Dew Point Humidity Wind Precip. Elev Updated Type
                   

Watches & Warnings

There are currently no watches in effect.